createdAt,value
2018-01-24T00:02:18.255Z,1.66
2018-01-24T00:04:45.862Z,1.61
2018-01-24T00:07:13.797Z,1.51
2018-01-24T00:09:41.376Z,1.54
2018-01-24T00:12:08.947Z,1.48
2018-01-24T00:14:36.512Z,1.47
2018-01-24T00:17:04.265Z,1.47
2018-01-24T00:19:31.850Z,1.46
2018-01-24T00:21:59.391Z,1.46
2018-01-24T00:24:26.973Z,1.44
2018-01-24T00:26:54.522Z,1.45
2018-01-24T00:29:22.453Z,1.42
2018-01-24T00:31:50.374Z,1.39
2018-01-24T00:34:17.951Z,1.42
2018-01-24T00:36:45.490Z,1.44
2018-01-24T00:39:13.263Z,1.50
2018-01-24T00:41:40.831Z,1.58
2018-01-24T00:44:08.413Z,1.54
2018-01-24T00:46:35.969Z,1.61
2018-01-24T00:49:03.694Z,1.54
2018-01-24T00:51:31.286Z,1.44
2018-01-24T00:53:58.860Z,1.47
2018-01-24T00:56:26.466Z,1.46
2018-01-24T00:58:54.029Z,1.40
2018-01-24T01:01:21.613Z,1.42
2018-01-24T01:03:49.224Z,1.38
2018-01-24T01:06:16.834Z,1.39
2018-01-24T01:08:44.394Z,1.55
2018-01-24T01:11:13.161Z,1.65
2018-01-24T01:13:40.733Z,1.69
2018-01-24T01:16:09.001Z,1.74
2018-01-24T01:18:36.631Z,1.76
2018-01-24T01:21:04.182Z,1.73
2018-01-24T01:23:32.574Z,1.78
2018-01-24T01:26:00.146Z,1.78
2018-01-24T01:28:27.725Z,1.89
2018-01-24T01:30:55.322Z,1.80
2018-01-24T01:33:23.060Z,1.70
2018-01-24T01:35:50.641Z,1.71
2018-01-24T01:38:18.193Z,1.86
2018-01-24T01:40:45.763Z,1.75
2018-01-24T01:43:13.930Z,1.73
2018-01-24T01:45:41.567Z,1.69
2018-01-24T01:48:09.157Z,1.63
2018-01-24T01:50:36.750Z,1.56
2018-01-24T01:53:04.409Z,1.53
2018-01-24T01:55:31.989Z,1.51
2018-01-24T01:57:59.533Z,1.50
2018-01-24T02:00:27.171Z,1.56
2018-01-24T02:02:54.751Z,1.57
2018-01-24T02:05:22.371Z,1.58
2018-01-24T02:07:50.247Z,1.51
2018-01-24T02:10:17.808Z,1.55
2018-01-24T02:12:45.400Z,1.48
2018-01-24T02:15:13.971Z,1.50
2018-01-24T02:17:41.531Z,1.65
2018-01-24T02:20:09.176Z,1.65
2018-01-24T02:22:36.792Z,1.58
2018-01-24T02:25:04.395Z,1.59
2018-01-24T02:27:31.971Z,1.52
2018-01-24T02:29:59.609Z,1.52
2018-01-24T02:32:27.197Z,1.59
2018-01-24T02:34:54.750Z,1.67
2018-01-24T02:37:22.545Z,1.68
2018-01-24T02:39:50.201Z,1.67
2018-01-24T02:42:17.757Z,1.68
2018-01-24T02:44:45.370Z,1.74
2018-01-24T02:47:13.498Z,1.75
2018-01-24T02:49:41.057Z,1.68
2018-01-24T02:52:08.689Z,1.59
2018-01-24T02:54:36.236Z,1.65
2018-01-24T02:57:03.822Z,1.61
2018-01-24T02:59:31.440Z,1.51
2018-01-24T03:02:00.341Z,1.57
2018-01-24T03:04:28.945Z,1.68
2018-01-24T03:06:56.502Z,1.60
2018-01-24T03:09:25.649Z,1.69
2018-01-24T03:11:53.254Z,1.75
2018-01-24T03:14:21.244Z,1.71
2018-01-24T03:16:49.178Z,1.54
2018-01-24T03:19:17.155Z,1.56
2018-01-24T03:21:44.793Z,1.53
2018-01-24T03:24:12.358Z,1.50
2018-01-24T03:26:39.922Z,1.54
2018-01-24T03:29:08.322Z,1.46
2018-01-24T03:31:35.902Z,1.41
2018-01-24T03:34:03.461Z,1.44
2018-01-24T03:36:31.106Z,1.43
2018-01-24T03:39:00.363Z,1.39
2018-01-24T03:41:28.616Z,1.57
2018-01-24T03:43:56.194Z,1.56
2018-01-24T03:46:23.897Z,1.75
2018-01-24T03:48:51.496Z,1.72
2018-01-24T03:51:19.076Z,1.69
2018-01-24T03:53:46.661Z,1.67
2018-01-24T03:56:14.223Z,1.70
2018-01-24T03:58:45.259Z,1.66
2018-01-24T04:01:13.022Z,1.62
2018-01-24T04:03:40.631Z,1.55
2018-01-24T04:06:08.226Z,1.61
2018-01-24T04:08:35.931Z,1.58
2018-01-24T04:11:03.553Z,1.67
2018-01-24T04:13:31.124Z,1.62
2018-01-24T04:15:58.713Z,1.91
2018-01-24T04:18:26.304Z,2.01
2018-01-24T04:20:53.849Z,1.91
2018-01-24T04:23:21.667Z,1.87
2018-01-24T04:25:49.332Z,2.05
2018-01-24T04:28:16.924Z,1.92
2018-01-24T04:30:44.532Z,1.85
2018-01-24T04:33:12.558Z,1.76
2018-01-24T04:35:40.150Z,1.92
2018-01-24T04:38:07.736Z,2.01
2018-01-24T04:40:35.304Z,1.91
2018-01-24T04:43:02.895Z,2.02
2018-01-24T04:45:30.507Z,2.06
2018-01-24T04:47:58.105Z,2.00
2018-01-24T04:50:25.696Z,1.94
2018-01-24T04:52:53.293Z,1.95
2018-01-24T04:55:21.975Z,1.94
2018-01-24T04:57:49.600Z,1.97
2018-01-24T05:00:17.167Z,2.02
2018-01-24T05:05:35.875Z,2.02
2018-01-24T05:08:03.453Z,2.14
2018-01-24T05:10:31.798Z,2.30
2018-01-24T05:12:59.406Z,2.19
2018-01-24T05:15:27.351Z,2.20
2018-01-24T05:17:55.009Z,2.30
2018-01-24T05:20:32.561Z,2.25
2018-01-24T05:23:00.182Z,2.25
2018-01-24T05:25:27.839Z,2.39
2018-01-24T05:27:55.606Z,2.37
2018-01-24T05:30:23.188Z,2.35
2018-01-24T05:32:50.753Z,2.31
2018-01-24T05:35:18.607Z,2.30
2018-01-24T05:37:46.239Z,2.25
2018-01-24T05:40:14.085Z,2.33
2018-01-24T05:42:41.712Z,2.41
2018-01-24T05:45:11.723Z,2.48
2018-01-24T05:47:39.289Z,2.60
2018-01-24T05:50:06.914Z,2.84
2018-01-24T05:52:34.526Z,2.76
2018-01-24T05:55:02.896Z,2.65
2018-01-24T05:57:30.794Z,2.69
2018-01-24T05:59:58.447Z,2.87
2018-01-24T06:02:26.006Z,2.79
2018-01-24T06:04:53.585Z,2.63
2018-01-24T06:07:22.140Z,2.67
2018-01-24T06:09:49.723Z,2.61
2018-01-24T06:12:17.282Z,2.77
2018-01-24T06:14:44.900Z,2.62
2018-01-24T06:17:12.546Z,2.76
2018-01-24T06:19:40.090Z,2.81
2018-01-24T06:22:07.692Z,2.91
2018-01-24T06:24:35.486Z,3.01
2018-01-24T06:27:04.186Z,3.00
2018-01-24T06:29:33.153Z,2.94
2018-01-24T06:32:01.578Z,3.02
2018-01-24T06:34:29.206Z,2.94
2018-01-24T06:39:30.482Z,2.96
2018-01-24T06:41:58.085Z,2.97
2018-01-24T06:44:25.655Z,3.18
2018-01-24T06:46:53.240Z,3.04
2018-01-24T06:49:20.923Z,2.91
2018-01-24T06:51:48.641Z,2.87
2018-01-24T06:57:07.202Z,2.94
2018-01-24T06:59:34.856Z,2.94
2018-01-24T07:02:02.419Z,2.98
2018-01-24T07:04:30.002Z,2.94
2018-01-24T07:07:00.572Z,2.93
2018-01-24T07:09:28.920Z,2.85
2018-01-24T07:12:10.088Z,2.89
2018-01-24T07:14:46.489Z,2.89
2018-01-24T07:17:18.357Z,3.03
2018-01-24T07:19:49.046Z,3.21
2018-01-24T07:22:16.669Z,3.43
2018-01-24T07:24:44.217Z,3.69
2018-01-24T07:27:12.264Z,3.80
2018-01-24T07:29:39.873Z,3.63
2018-01-24T07:32:07.401Z,3.71
2018-01-24T07:34:34.970Z,3.66
2018-01-24T07:37:02.570Z,3.85
2018-01-24T07:39:30.339Z,3.75
2018-01-24T07:41:58.146Z,3.91
2018-01-24T07:44:25.745Z,3.81
2018-01-24T07:46:53.286Z,3.78
2018-01-24T07:49:23.445Z,3.73
2018-01-24T07:51:51.070Z,3.76
2018-01-24T07:54:21.285Z,3.71
2018-01-24T07:56:48.853Z,3.71
2018-01-24T07:59:19.168Z,3.53
2018-01-24T08:01:46.750Z,3.49
2018-01-24T08:04:14.329Z,3.59
2018-01-24T08:06:41.923Z,3.54
2018-01-24T08:09:11.131Z,3.58
2018-01-24T08:11:38.702Z,3.57
2018-01-24T08:14:06.245Z,3.52
2018-01-24T08:16:33.788Z,3.62
2018-01-24T08:19:01.446Z,3.58
2018-01-24T08:21:29.722Z,3.55
2018-01-24T08:23:57.274Z,3.56
2018-01-24T08:26:24.865Z,3.53
2018-01-24T08:28:52.401Z,3.72
2018-01-24T08:31:20.088Z,4.07
2018-01-24T08:33:47.670Z,3.93
2018-01-24T08:36:15.333Z,4.08
2018-01-24T08:38:42.885Z,4.23
2018-01-24T08:41:11.533Z,4.23
2018-01-24T08:43:39.090Z,4.21
2018-01-24T08:46:06.621Z,4.31
2018-01-24T08:48:34.205Z,4.39
2018-01-24T08:51:01.770Z,4.59
2018-01-24T08:53:29.351Z,4.74
2018-01-24T08:55:56.882Z,4.91
2018-01-24T08:58:24.427Z,5.10
2018-01-24T09:00:52.009Z,5.41
2018-01-24T09:03:19.551Z,5.47
2018-01-24T09:05:47.490Z,5.89
2018-01-24T09:08:15.057Z,6.26
2018-01-24T09:10:42.611Z,6.33
2018-01-24T09:13:10.630Z,6.44
2018-01-24T09:15:38.245Z,6.34
2018-01-24T09:18:06.218Z,6.36
2018-01-24T09:20:33.760Z,6.47
2018-01-24T09:23:01.412Z,6.57
2018-01-24T09:25:28.990Z,6.83
2018-01-24T09:27:56.601Z,6.61
2018-01-24T09:30:24.580Z,6.35
2018-01-24T09:32:52.140Z,6.51
2018-01-24T09:35:21.418Z,6.25
2018-01-24T09:37:49.036Z,6.18
2018-01-24T09:40:16.597Z,6.02
2018-01-24T09:42:44.121Z,6.15
2018-01-24T09:45:12.428Z,6.10
2018-01-24T09:47:40.022Z,6.29
2018-01-24T09:50:07.570Z,6.38
2018-01-24T09:52:35.147Z,6.82
2018-01-24T09:55:02.734Z,7.37
2018-01-24T09:57:30.285Z,7.92
2018-01-24T09:59:57.883Z,8.24
2018-01-24T10:02:25.916Z,8.41
2018-01-24T10:04:53.483Z,8.22
2018-01-24T10:07:21.086Z,7.73
2018-01-24T10:09:48.616Z,7.62
2018-01-24T10:12:16.157Z,7.50
2018-01-24T10:14:43.740Z,7.31
2018-01-24T10:17:12.328Z,7.31
2018-01-24T10:19:39.921Z,7.36
2018-01-24T10:22:07.507Z,7.35
2018-01-24T10:24:35.094Z,7.48
2018-01-24T10:27:02.941Z,7.54
2018-01-24T10:29:30.505Z,7.47
2018-01-24T10:31:58.100Z,7.57
2018-01-24T10:34:25.864Z,7.34
2018-01-24T10:36:53.441Z,7.50
2018-01-24T10:39:21.613Z,7.43
2018-01-24T10:41:49.409Z,7.57
2018-01-24T10:44:17.227Z,7.77
2018-01-24T10:46:44.804Z,7.80
2018-01-24T10:49:12.750Z,7.93
2018-01-24T10:51:40.288Z,8.01
2018-01-24T10:54:08.098Z,8.05
2018-01-24T10:56:35.644Z,8.15
2018-01-24T10:59:03.202Z,8.27
2018-01-24T11:01:32.419Z,8.39
2018-01-24T11:04:01.476Z,8.32
2018-01-24T11:06:29.019Z,8.34
2018-01-24T11:08:57.720Z,8.16
2018-01-24T11:11:25.442Z,7.93
2018-01-24T11:13:54.880Z,8.05
2018-01-24T11:16:22.725Z,8.10
2018-01-24T11:18:50.488Z,7.88
2018-01-24T11:21:18.524Z,7.80
2018-01-24T11:23:46.142Z,7.80
2018-01-24T11:26:13.688Z,7.68
2018-01-24T11:28:41.704Z,7.67
2018-01-24T11:31:11.145Z,7.69
2018-01-24T11:33:39.901Z,7.69
2018-01-24T11:36:08.302Z,7.79
2018-01-24T11:38:35.853Z,7.86
2018-01-24T11:41:03.630Z,7.90
2018-01-24T11:43:31.197Z,7.93
2018-01-24T11:45:59.948Z,7.83
2018-01-24T11:48:27.729Z,7.87
2018-01-24T11:50:55.301Z,7.92
2018-01-24T11:53:22.910Z,7.95
2018-01-24T11:55:53.601Z,7.92
2018-01-24T11:58:21.253Z,7.94
2018-01-24T12:00:48.816Z,8.09
2018-01-24T12:03:16.432Z,8.18
2018-01-24T12:05:44.078Z,8.13
2018-01-24T12:08:11.791Z,8.14
2018-01-24T12:10:39.367Z,8.25
2018-01-24T12:13:07.404Z,8.38
2018-01-24T12:15:35.030Z,8.52
2018-01-24T12:18:02.810Z,8.71
2018-01-24T12:20:30.364Z,8.73
2018-01-24T12:22:57.904Z,8.88
2018-01-24T12:25:25.492Z,9.14
2018-01-24T12:27:53.031Z,9.83
2018-01-24T12:30:20.604Z,11.11
2018-01-24T12:32:48.206Z,12.04
2018-01-24T12:35:15.773Z,12.49
2018-01-24T12:37:43.365Z,12.81
2018-01-24T12:40:11.057Z,12.61
2018-01-24T12:42:38.640Z,12.87
2018-01-24T12:45:06.765Z,12.49
2018-01-24T12:47:34.468Z,12.33
2018-01-24T12:50:02.049Z,12.31
2018-01-24T12:52:29.636Z,12.45
2018-01-24T12:54:57.213Z,12.84
2018-01-24T12:57:24.786Z,13.12
2018-01-24T12:59:52.368Z,13.07
2018-01-24T13:02:20.000Z,13.35
2018-01-24T13:04:47.609Z,13.34
2018-01-24T13:07:15.893Z,14.00
2018-01-24T13:09:43.536Z,14.10
2018-01-24T13:12:11.564Z,13.70
2018-01-24T13:14:39.551Z,13.15
2018-01-24T13:17:08.656Z,12.81
2018-01-24T13:19:36.259Z,12.70
2018-01-24T13:22:03.873Z,12.24
2018-01-24T13:24:31.886Z,12.59
2018-01-24T13:26:59.440Z,13.00
2018-01-24T13:29:27.268Z,13.16
2018-01-24T13:31:54.860Z,13.02
2018-01-24T13:34:23.454Z,13.61
2018-01-24T13:36:50.987Z,13.37
2018-01-24T13:39:19.097Z,12.96
2018-01-24T13:41:46.646Z,12.48
2018-01-24T13:44:14.241Z,12.75
2018-01-24T13:46:41.849Z,13.14
2018-01-24T13:49:10.616Z,13.24
2018-01-24T13:51:38.276Z,12.68
2018-01-24T13:54:08.146Z,12.86
2018-01-24T13:56:35.716Z,12.88
2018-01-24T13:59:03.291Z,12.76
2018-01-24T14:01:30.916Z,12.60
2018-01-24T14:03:58.500Z,12.39
2018-01-24T14:06:26.274Z,12.55
2018-01-24T14:08:53.829Z,12.56
2018-01-24T14:11:21.699Z,11.97
2018-01-24T14:13:49.445Z,11.93
2018-01-24T14:16:17.008Z,11.65
2018-01-24T14:18:44.604Z,11.65
2018-01-24T14:21:12.866Z,12.03
2018-01-24T14:23:40.421Z,12.07
2018-01-24T14:26:08.055Z,11.61
2018-01-24T14:28:35.703Z,10.64
2018-01-24T14:31:03.285Z,10.09
2018-01-24T14:33:30.886Z,9.44
2018-01-24T14:35:58.425Z,8.90
2018-01-24T14:38:25.974Z,8.60
2018-01-24T14:40:53.659Z,8.40
2018-01-24T14:43:21.192Z,8.13
2018-01-24T14:45:48.757Z,8.15
2018-01-24T14:48:16.359Z,8.05
2018-01-24T14:50:43.960Z,7.89
2018-01-24T14:53:11.689Z,7.67
2018-01-24T14:55:39.361Z,7.24
2018-01-24T14:58:06.901Z,6.81
2018-01-24T15:00:34.520Z,6.49
2018-01-24T15:03:02.144Z,6.12
2018-01-24T15:05:29.730Z,5.81
2018-01-24T15:07:57.267Z,5.67
2018-01-24T15:10:25.134Z,5.61
2018-01-24T15:12:54.544Z,5.58
2018-01-24T15:15:22.461Z,5.43
2018-01-24T15:17:50.255Z,5.30
2018-01-24T15:20:17.857Z,5.23
2018-01-24T15:22:45.530Z,5.06
2018-01-24T15:25:13.284Z,4.92
2018-01-24T15:27:40.845Z,4.76
2018-01-24T15:30:08.398Z,4.61
2018-01-24T15:32:36.650Z,4.60
2018-01-24T15:35:04.206Z,4.71
2018-01-24T15:37:32.270Z,4.67
2018-01-24T15:40:00.076Z,4.62
2018-01-24T15:42:27.706Z,4.49
2018-01-24T15:44:55.294Z,4.47
2018-01-24T15:47:24.042Z,4.40
2018-01-24T15:49:54.133Z,4.39
2018-01-24T15:52:24.432Z,4.27
2018-01-24T15:54:52.008Z,4.13
2018-01-24T15:57:22.076Z,3.91
2018-01-24T15:59:49.746Z,3.75
2018-01-24T16:02:17.305Z,3.62
2018-01-24T16:04:44.857Z,3.53
2018-01-24T16:07:13.117Z,3.45
2018-01-24T16:09:40.693Z,3.40
2018-01-24T16:12:08.401Z,3.32
2018-01-24T16:14:35.969Z,3.26
2018-01-24T16:17:03.648Z,3.22
2018-01-24T16:19:31.534Z,3.12
2018-01-24T16:21:59.081Z,3.07
2018-01-24T16:24:26.630Z,3.00
2018-01-24T16:26:54.200Z,3.00
2018-01-24T16:29:21.915Z,2.95
2018-01-24T16:31:49.733Z,2.91
2018-01-24T16:34:17.296Z,2.88
2018-01-24T16:36:44.872Z,2.83
2018-01-24T16:39:12.488Z,2.76
2018-01-24T16:41:40.096Z,2.69
2018-01-24T16:44:07.630Z,2.68
2018-01-24T16:46:35.241Z,2.66
2018-01-24T16:49:02.954Z,2.66
2018-01-24T16:51:32.004Z,2.74
2018-01-24T16:53:59.533Z,2.73
2018-01-24T16:56:27.100Z,2.71
2018-01-24T16:58:54.648Z,2.63
2018-01-24T17:01:22.195Z,2.60
2018-01-24T17:03:49.846Z,2.56
2018-01-24T17:06:17.402Z,2.54
2018-01-24T17:08:45.000Z,2.52
2018-01-24T17:11:13.421Z,2.50
2018-01-24T17:13:40.992Z,2.48
2018-01-24T17:16:08.590Z,2.47
2018-01-24T17:18:36.194Z,2.41
2018-01-24T17:21:03.799Z,2.34
2018-01-24T17:23:31.753Z,2.35
2018-01-24T17:25:59.320Z,2.31
2018-01-24T17:28:26.887Z,2.26
2018-01-24T17:30:54.480Z,2.26
2018-01-24T17:33:22.036Z,2.29
2018-01-24T17:35:49.594Z,2.34
2018-01-24T17:38:17.354Z,2.29
2018-01-24T17:40:44.945Z,2.25
2018-01-24T17:43:12.778Z,2.19
2018-01-24T17:45:40.607Z,2.12
2018-01-24T17:48:08.157Z,2.08
2018-01-24T17:50:35.716Z,2.02
2018-01-24T17:53:03.291Z,1.98
2018-01-24T17:55:30.866Z,1.98
2018-01-24T17:57:58.419Z,1.92
2018-01-24T18:00:26.074Z,1.86
2018-01-24T18:02:53.649Z,1.80
2018-01-24T18:05:22.558Z,1.78
2018-01-24T18:07:50.173Z,1.73
2018-01-24T18:10:17.735Z,1.75
2018-01-24T18:12:45.327Z,1.76
2018-01-24T18:15:13.074Z,1.74
2018-01-24T18:17:40.643Z,1.80
2018-01-24T18:20:08.209Z,1.77
2018-01-24T18:22:35.820Z,1.66
2018-01-24T18:25:03.469Z,1.67
2018-01-24T18:27:31.086Z,1.69
2018-01-24T18:29:58.765Z,1.66
2018-01-24T18:32:26.315Z,1.57
2018-01-24T18:34:53.975Z,1.51
2018-01-24T18:37:21.751Z,1.53
2018-01-24T18:39:49.458Z,1.52
2018-01-24T18:42:17.279Z,1.57
2018-01-24T18:44:44.832Z,1.54
2018-01-24T18:47:13.726Z,1.62
2018-01-24T18:49:41.366Z,1.54
2018-01-24T18:52:09.478Z,1.49
2018-01-24T18:54:37.069Z,1.53
2018-01-24T18:57:04.740Z,1.55
2018-01-24T18:59:32.504Z,1.47
2018-01-24T19:02:00.445Z,1.41
2018-01-24T19:04:28.177Z,1.35
2018-01-24T19:06:55.784Z,1.34
2018-01-24T19:09:24.022Z,1.42
2018-01-24T19:11:51.744Z,1.36
2018-01-24T19:14:19.434Z,1.32
2018-01-24T19:16:48.952Z,1.22
2018-01-24T19:19:18.708Z,1.20
2018-01-24T19:21:46.399Z,1.28
2018-01-24T19:24:13.982Z,1.29
2018-01-24T19:26:41.598Z,1.20
2018-01-24T19:29:09.220Z,1.12
2018-01-24T19:31:36.817Z,1.17
2018-01-24T19:34:04.467Z,1.25
2018-01-24T19:36:35.266Z,1.19
2018-01-24T19:39:02.846Z,1.12
2018-01-24T19:41:30.443Z,1.05
2018-01-24T19:44:01.790Z,0.92
2018-01-24T19:46:29.642Z,0.92
2018-01-24T19:48:57.225Z,0.97
2018-01-24T19:51:26.205Z,0.86
2018-01-24T19:54:00.286Z,0.80
2018-01-24T19:56:27.869Z,0.84
2018-01-24T19:58:55.426Z,0.94
2018-01-24T20:01:22.992Z,0.98
2018-01-24T20:03:50.575Z,1.08
2018-01-24T20:06:18.312Z,1.14
2018-01-24T20:11:37.873Z,0.99
2018-01-24T20:14:05.434Z,0.96
2018-01-24T20:16:33.034Z,0.90
2018-01-24T20:19:00.715Z,0.98
2018-01-24T20:21:28.549Z,0.96
2018-01-24T20:23:56.151Z,0.92
2018-01-24T20:26:24.905Z,0.97
2018-01-24T20:28:52.463Z,0.91
2018-01-24T20:31:20.374Z,0.77
2018-01-24T20:33:48.083Z,0.68
2018-01-24T20:36:15.665Z,0.68
2018-01-24T20:38:43.235Z,0.68
2018-01-24T20:41:11.915Z,0.83
2018-01-24T20:43:39.475Z,0.75
2018-01-24T20:46:07.101Z,0.73
2018-01-24T20:48:34.650Z,0.84
2018-01-24T20:51:02.189Z,0.87
2018-01-24T20:53:30.949Z,0.88
2018-01-24T20:55:58.522Z,0.93
2018-01-24T20:58:26.090Z,0.97
2018-01-24T21:00:53.692Z,0.86
2018-01-24T21:03:21.574Z,0.85
2018-01-24T21:05:49.137Z,0.80
2018-01-24T21:08:16.794Z,0.74
2018-01-24T21:10:44.380Z,0.64
2018-01-24T21:13:13.038Z,0.75
2018-01-24T21:15:40.632Z,0.78
2018-01-24T21:18:08.218Z,0.71
2018-01-24T21:20:35.797Z,0.64
2018-01-24T21:23:03.410Z,0.59
2018-01-24T21:25:30.963Z,0.57
2018-01-24T21:27:58.565Z,0.60
2018-01-24T21:30:26.512Z,0.58
2018-01-24T21:33:06.613Z,0.57
2018-01-24T21:35:45.927Z,0.45
2018-01-24T21:38:13.638Z,0.32
2018-01-24T21:40:41.241Z,0.35
2018-01-24T21:43:09.727Z,0.30
2018-01-24T21:45:37.314Z,0.37
2018-01-24T21:48:04.875Z,0.35
2018-01-24T21:50:32.436Z,0.25
2018-01-24T21:53:00.037Z,0.19
2018-01-24T21:55:27.607Z,0.13
2018-01-24T21:57:55.272Z,0.12
2018-01-24T22:00:22.868Z,0.24
2018-01-24T22:02:50.433Z,0.26
2018-01-24T22:05:18.475Z,0.29
2018-01-24T22:07:46.056Z,0.31
2018-01-24T22:10:13.705Z,0.33
2018-01-24T22:12:41.323Z,0.35
2018-01-24T22:15:09.281Z,0.37
2018-01-24T22:17:36.890Z,0.38
2018-01-24T22:22:55.611Z,0.46
2018-01-24T22:25:24.095Z,0.36
2018-01-24T22:27:51.852Z,0.33
2018-01-24T22:30:19.499Z,0.33
2018-01-24T22:32:47.047Z,0.31
2018-01-24T22:35:15.176Z,0.32
2018-01-24T22:37:42.829Z,0.33
2018-01-24T22:40:10.454Z,0.36
2018-01-24T22:42:38.080Z,0.36
2018-01-24T22:45:06.135Z,0.31
2018-01-24T22:47:33.737Z,0.28
2018-01-24T22:50:01.305Z,0.30
2018-01-24T22:52:28.986Z,0.17
2018-01-24T22:54:56.547Z,0.10
2018-01-24T22:57:25.278Z,0.02
2018-01-24T22:59:53.421Z,0.09
2018-01-24T23:02:21.083Z,0.11
2018-01-24T23:04:48.680Z,0.02
2018-01-24T23:07:16.853Z,0.00
2018-01-24T23:09:44.429Z,-0.15
2018-01-24T23:12:14.952Z,-0.29
2018-01-24T23:14:42.528Z,-0.44
2018-01-24T23:17:12.259Z,-0.45
2018-01-24T23:19:40.202Z,-0.44
2018-01-24T23:22:07.756Z,-0.46
2018-01-24T23:24:35.376Z,-0.35
2018-01-24T23:27:08.458Z,-0.36
2018-01-24T23:29:36.737Z,-0.24
2018-01-24T23:32:06.015Z,-0.14
2018-01-24T23:34:33.779Z,-0.07
2018-01-24T23:37:01.364Z,-0.06
2018-01-24T23:39:28.909Z,-0.03
2018-01-24T23:41:56.531Z,-0.03
2018-01-24T23:44:24.071Z,-0.07
2018-01-24T23:46:51.615Z,-0.12
2018-01-24T23:49:19.280Z,-0.09
2018-01-24T23:51:46.886Z,-0.03
2018-01-24T23:54:15.667Z,-0.04
2018-01-24T23:56:46.209Z,-0.08
2018-01-24T23:59:13.769Z,-0.13
